Time;durP1;ratioP1;P1;durP2;ratioP2;P2;SDS_P1;SDS_P2;PMS_P1;PMS_P2;Temp;Humidity;BMP_temperature;BMP_pressure;BME280_temperature;BME280_humidity;BME280_pressure;Samples;Min_cycle;Max_cycle;Signal;HPM_P1;HPM_P2
2023/03/02 00:00:21;;;;;;;4.72;1.60;;;22.60;99.90;;;;;;5011573;28;20230;-78
2023/03/02 00:02:52;;;;;;;4.40;1.70;;;22.70;99.90;;;;;;5010227;28;20683;-87
2023/03/02 00:05:24;;;;;;;4.63;1.40;;;22.70;99.90;;;;;;5006341;28;20751;-80
2023/03/02 00:07:55;;;;;;;3.13;1.58;;;22.70;99.90;;;;;;5006930;28;20199;-80
2023/03/02 00:10:28;;;;;;;4.32;1.40;;;22.60;99.90;;;;;;5009162;28;20663;-81
2023/03/02 00:13:01;;;;;;;4.50;1.42;;;22.70;99.90;;;;;;5006430;28;20548;-80
2023/03/02 00:15:32;;;;;;;2.25;1.08;;;22.70;99.90;;;;;;5010449;28;20203;-82
2023/03/02 00:18:03;;;;;;;2.22;1.20;;;22.60;99.90;;;;;;5007805;28;20202;-78
2023/03/02 00:20:35;;;;;;;2.95;1.10;;;22.60;99.90;;;;;;5006807;28;20599;-80
2023/03/02 00:23:06;;;;;;;2.30;0.90;;;22.60;99.90;;;;;;5011198;28;20195;-80
2023/03/02 00:25:39;;;;;;;6.20;1.20;;;22.50;99.90;;;;;;5003959;28;20198;-78
2023/03/02 00:28:10;;;;;;;3.15;1.10;;;22.50;99.90;;;;;;5008126;28;20222;-78
2023/03/02 00:30:41;;;;;;;2.55;1.10;;;22.50;99.90;;;;;;5004765;28;20205;-81
2023/03/02 00:33:13;;;;;;;2.75;1.00;;;22.50;99.90;;;;;;5006351;28;20774;-80
2023/03/02 00:35:44;;;;;;;3.50;1.38;;;22.60;99.90;;;;;;5006054;28;20225;-79
2023/03/02 00:38:15;;;;;;;4.72;1.23;;;22.80;99.90;;;;;;5008856;28;20199;-76
2023/03/02 00:40:50;;;;;;;2.13;0.98;;;22.90;99.90;;;;;;5011000;28;20223;-76
2023/03/02 00:43:26;;;;;;;3.05;1.10;;;23.10;99.90;;;;;;5005744;28;20226;-77
2023/03/02 00:45:57;;;;;;;5.78;1.13;;;23.30;99.90;;;;;;5011338;28;20573;-77
2023/03/02 00:48:28;;;;;;;4.05;1.20;;;23.40;99.90;;;;;;5006201;28;20195;-77
2023/03/02 00:51:02;;;;;;;2.05;0.88;;;23.60;99.90;;;;;;5010288;28;20569;-78
2023/03/02 00:53:33;;;;;;;4.05;1.13;;;23.70;99.90;;;;;;5010902;28;20202;-77
2023/03/02 00:56:07;;;;;;;2.33;0.90;;;23.80;99.90;;;;;;5009287;28;20195;-76
2023/03/02 00:58:39;;;;;;;4.75;1.00;;;23.80;99.90;;;;;;5007010;28;20234;-77
2023/03/02 01:01:13;;;;;;;3.28;1.08;;;23.90;99.90;;;;;;5010493;28;20314;-76
2023/03/02 01:03:44;;;;;;;8.52;1.73;;;23.90;99.90;;;;;;5015105;28;20213;-77
2023/03/02 01:06:19;;;;;;;2.67;1.00;;;23.90;99.90;;;;;;5016060;28;20206;-77
2023/03/02 01:08:51;;;;;;;3.60;1.10;;;23.80;99.90;;;;;;5015403;28;20211;-77
2023/03/02 01:11:25;;;;;;;3.20;1.13;;;23.80;99.90;;;;;;5011587;28;20669;-76
2023/03/02 01:13:56;;;;;;;2.88;1.00;;;23.90;99.90;;;;;;5010387;28;20206;-77
2023/03/02 01:16:27;;;;;;;2.17;1.33;;;23.90;99.90;;;;;;5010043;28;20203;-76
2023/03/02 01:18:58;;;;;;;2.47;1.10;;;24.00;99.90;;;;;;5009937;28;20658;-76
2023/03/02 01:21:30;;;;;;;2.20;0.80;;;24.00;99.90;;;;;;5013929;28;20686;-76
2023/03/02 01:24:01;;;;;;;4.00;1.10;;;24.10;99.90;;;;;;5012295;28;20605;-77
2023/03/02 01:26:34;;;;;;;3.33;0.90;;;24.20;99.90;;;;;;5010043;28;20195;-80
2023/03/02 01:29:06;;;;;;;3.13;0.88;;;24.30;99.90;;;;;;5009519;28;20209;-79
2023/03/02 01:31:37;;;;;;;2.85;0.90;;;24.40;99.90;;;;;;5006824;28;20218;-78
2023/03/02 01:34:08;;;;;;;2.40;0.88;;;24.40;99.90;;;;;;5008203;28;20195;-77
2023/03/02 01:36:39;;;;;;;2.80;0.70;;;24.50;99.90;;;;;;5009143;28;20209;-80
2023/03/02 01:39:14;;;;;;;2.05;0.70;;;24.50;99.90;;;;;;5011942;28;20599;-76
2023/03/02 01:41:47;;;;;;;2.00;0.68;;;24.60;99.90;;;;;;5009169;28;20234;-81
2023/03/02 01:44:41;;;;;;;1.95;0.80;;;24.60;99.90;;;;;;4997186;28;20211;-82
2023/03/02 01:47:19;;;;;;;3.58;1.00;;;24.70;99.90;;;;;;5012708;28;20206;-79
2023/03/02 01:49:53;;;;;;;2.72;0.90;;;24.80;99.90;;;;;;5013940;28;20191;-82
2023/03/02 01:52:24;;;;;;;2.15;1.00;;;25.00;99.90;;;;;;5012871;28;20202;-77
2023/03/02 01:54:58;;;;;;;1.80;0.80;;;25.20;99.90;;;;;;5014540;28;20203;-78
2023/03/02 01:57:42;;;;;;;4.93;0.85;;;25.20;99.90;;;;;;5011755;28;20214;-78
2023/03/02 02:00:18;;;;;;;3.13;0.77;;;25.30;99.90;;;;;;5006966;28;20222;-78
2023/03/02 02:02:49;;;;;;;3.00;0.80;;;25.40;99.90;;;;;;5011225;28;20230;-84
2023/03/02 02:05:24;;;;;;;1.75;0.60;;;25.60;99.90;;;;;;5005559;28;20198;-80
2023/03/02 02:07:55;;;;;;;1.65;0.73;;;25.70;99.90;;;;;;5002663;28;20202;-81
2023/03/02 02:10:26;;;;;;;3.33;0.73;;;25.70;99.90;;;;;;5009839;28;20202;-78
2023/03/02 02:12:59;;;;;;;2.92;0.85;;;25.80;99.90;;;;;;5012474;28;20539;-78
2023/03/02 02:15:30;;;;;;;2.35;0.90;;;25.80;99.90;;;;;;5014081;28;20569;-78
2023/03/02 02:18:01;;;;;;;3.20;0.93;;;25.90;99.90;;;;;;5009750;28;20214;-77
2023/03/02 02:20:38;;;;;;;1.40;0.80;;;25.90;99.90;;;;;;5008207;28;20265;-78
2023/03/02 02:23:19;;;;;;;3.47;0.98;;;25.90;99.90;;;;;;5014151;28;20226;-78
2023/03/02 02:26:06;;;;;;;2.63;1.05;;;25.70;99.90;;;;;;5009956;28;20195;-77
2023/03/02 02:28:40;;;;;;;2.45;0.80;;;25.60;99.90;;;;;;5012262;28;20195;-79
2023/03/02 02:31:16;;;;;;;4.25;1.05;;;25.60;99.90;;;;;;5011153;28;20198;-77
2023/03/02 02:33:52;;;;;;;4.93;1.17;;;25.60;99.90;;;;;;5010840;28;20191;-78
2023/03/02 02:36:26;;;;;;;3.28;0.90;;;25.60;99.90;;;;;;5011565;28;20573;-78
2023/03/02 02:38:58;;;;;;;3.47;1.05;;;25.50;99.90;;;;;;5011031;28;20198;-77
2023/03/02 02:41:35;;;;;;;2.80;0.80;;;25.50;99.90;;;;;;5013164;28;20960;-78
2023/03/02 02:44:05;;;;;;;3.38;0.90;;;25.60;99.90;;;;;;5009954;28;20198;-77
2023/03/02 02:46:36;;;;;;;3.20;1.20;;;25.60;99.90;;;;;;5014049;28;20187;-78
2023/03/02 02:49:12;;;;;;;3.33;1.00;;;25.60;99.90;;;;;;5010703;28;20717;-80
2023/03/02 02:51:43;;;;;;;4.10;1.10;;;25.60;99.90;;;;;;5013753;28;20195;-80
2023/03/02 02:54:19;;;;;;;4.65;1.17;;;25.70;99.90;;;;;;4999835;28;20196;-77
2023/03/02 02:56:54;;;;;;;2.88;1.00;;;25.90;99.90;;;;;;4995899;28;20666;-81
2023/03/02 02:59:27;;;;;;;3.88;0.90;;;25.70;99.90;;;;;;5009149;28;20230;-77
2023/03/02 03:01:59;;;;;;;4.47;1.15;;;25.60;99.90;;;;;;5008125;28;20219;-80
2023/03/02 03:04:32;;;;;;;2.72;0.90;;;25.60;99.90;;;;;;5008631;28;20221;-78
2023/03/02 03:07:05;;;;;;;2.60;0.80;;;25.60;99.90;;;;;;5010596;28;20206;-80
2023/03/02 03:09:36;;;;;;;2.35;0.90;;;25.60;99.90;;;;;;5009535;28;20762;-79
2023/03/02 03:12:16;;;;;;;1.73;0.90;;;25.60;99.90;;;;;;5010400;28;20254;-77
2023/03/02 03:14:48;;;;;;;3.42;0.80;;;25.40;99.90;;;;;;5012385;28;20199;-77
2023/03/02 03:17:20;;;;;;;2.70;0.90;;;25.20;99.90;;;;;;5012103;28;20673;-78
2023/03/02 03:19:51;;;;;;;2.03;0.90;;;25.20;99.90;;;;;;5008053;28;20226;-77
2023/03/02 03:22:22;;;;;;;1.85;1.10;;;25.20;99.90;;;;;;5010669;28;20599;-78
2023/03/02 03:24:53;;;;;;;2.95;0.77;;;25.40;99.90;;;;;;4998419;28;20198;-78
2023/03/02 03:27:26;;;;;;;3.33;0.90;;;25.60;99.90;;;;;;5007872;28;20210;-80
2023/03/02 03:29:57;;;;;;;1.63;0.70;;;25.70;99.90;;;;;;5008006;28;20199;-80
2023/03/02 03:32:28;;;;;;;2.20;0.75;;;25.90;99.90;;;;;;5007748;28;20210;-79
2023/03/02 03:34:59;;;;;;;4.68;0.77;;;26.10;99.90;;;;;;5007439;28;20207;-78
2023/03/02 03:37:32;;;;;;;3.00;0.85;;;26.10;99.90;;;;;;5012712;28;20206;-80
2023/03/02 03:40:05;;;;;;;2.72;1.48;;;26.10;99.90;;;;;;4997202;28;20195;-80
2023/03/02 03:42:39;;;;;;;1.50;0.73;;;26.10;99.90;;;;;;5011019;28;20237;-79
2023/03/02 03:45:12;;;;;;;2.40;0.80;;;26.10;99.90;;;;;;5010714;28;20199;-79
2023/03/02 03:47:44;;;;;;;2.25;1.10;;;26.20;99.90;;;;;;5009454;28;20547;-79
2023/03/02 03:50:15;;;;;;;1.20;0.68;;;26.20;99.90;;;;;;5011929;28;20199;-80
2023/03/02 03:52:46;;;;;;;0.93;0.68;;;26.20;99.90;;;;;;5013412;28;20224;-78
2023/03/02 03:55:18;;;;;;;3.38;1.05;;;26.30;99.90;;;;;;5007757;28;20191;-78
2023/03/02 03:57:51;;;;;;;1.70;0.70;;;26.40;99.90;;;;;;5012279;28;20238;-78
2023/03/02 04:00:23;;;;;;;2.30;0.90;;;26.50;99.90;;;;;;5008485;28;20206;-77
2023/03/02 04:02:54;;;;;;;3.15;0.70;;;26.40;99.90;;;;;;5008371;28;20770;-79
2023/03/02 04:05:25;;;;;;;1.67;0.80;;;26.50;99.90;;;;;;5011980;28;20202;-79
2023/03/02 04:07:58;;;;;;;3.92;0.82;;;26.50;99.90;;;;;;5012365;28;20202;-84
2023/03/02 04:10:29;;;;;;;2.33;0.80;;;26.50;99.90;;;;;;5013454;28;20277;-81
2023/03/02 04:13:02;;;;;;;1.70;0.70;;;26.50;99.90;;;;;;5009051;28;20195;-78
2023/03/02 04:15:33;;;;;;;1.50;0.80;;;26.50;99.90;;;;;;5009026;28;20222;-80
2023/03/02 04:18:04;;;;;;;2.05;0.80;;;26.40;99.90;;;;;;5004886;28;20560;-78
2023/03/02 04:20:36;;;;;;;2.65;0.80;;;26.20;99.90;;;;;;5007243;28;20666;-81
2023/03/02 04:23:07;;;;;;;1.23;0.77;;;26.20;99.90;;;;;;5009005;28;20206;-78
2023/03/02 04:25:38;;;;;;;1.58;0.80;;;26.30;99.90;;;;;;5009919;28;20668;-81
2023/03/02 04:28:11;;;;;;;2.83;0.63;;;26.10;99.90;;;;;;5005989;28;20655;-79
2023/03/02 04:30:42;;;;;;;1.98;0.60;;;26.10;99.90;;;;;;5010446;28;20191;-80
2023/03/02 04:33:13;;;;;;;1.58;0.70;;;26.20;99.90;;;;;;4999778;28;20186;-80
2023/03/02 04:35:44;;;;;;;3.00;0.88;;;26.20;99.90;;;;;;5033083;28;20205;-78
2023/03/02 04:38:15;;;;;;;3.17;0.85;;;26.30;99.90;;;;;;5034215;28;20190;-77
2023/03/02 04:40:46;;;;;;;4.40;0.60;;;26.30;99.90;;;;;;5036720;28;20206;-79
2023/03/02 04:43:19;;;;;;;3.92;0.77;;;26.30;99.90;;;;;;5036630;28;20237;-79
2023/03/02 04:45:50;;;;;;;2.50;0.75;;;26.20;99.90;;;;;;5036919;28;20187;-78
2023/03/02 04:48:21;;;;;;;1.95;0.60;;;26.10;99.90;;;;;;5037087;28;20190;-78
2023/03/02 04:50:53;;;;;;;2.95;0.77;;;26.00;99.90;;;;;;5036751;28;20654;-79
2023/03/02 04:53:24;;;;;;;1.95;0.70;;;26.10;99.90;;;;;;5036697;28;20669;-79
2023/03/02 04:55:55;;;;;;;1.15;0.60;;;26.10;99.90;;;;;;5036713;28;20190;-78
2023/03/02 04:58:28;;;;;;;1.48;0.65;;;26.10;99.90;;;;;;5009751;28;20227;-77
2023/03/02 05:01:01;;;;;;;1.38;0.60;;;26.10;99.90;;;;;;4997026;28;20192;-79
2023/03/02 05:03:32;;;;;;;2.92;0.70;;;26.00;99.90;;;;;;4997814;28;20257;-81
2023/03/02 05:06:04;;;;;;;1.70;0.50;;;25.90;99.90;;;;;;5015047;28;20198;-79
2023/03/02 05:08:35;;;;;;;4.57;0.73;;;25.80;99.90;;;;;;5017719;28;20241;-78
2023/03/02 05:11:07;;;;;;;1.23;0.60;;;25.80;99.90;;;;;;5001520;28;20199;-79
2023/03/02 05:13:40;;;;;;;1.77;0.50;;;25.90;99.90;;;;;;4996607;28;20242;-78
2023/03/02 05:16:11;;;;;;;3.15;0.77;;;25.90;99.90;;;;;;4996427;28;20640;-80
2023/03/02 05:18:42;;;;;;;2.80;0.57;;;25.90;99.90;;;;;;4996045;28;20194;-80
2023/03/02 05:21:13;;;;;;;2.40;0.60;;;25.90;99.90;;;;;;4996383;28;20223;-82
2023/03/02 05:23:45;;;;;;;3.13;0.70;;;25.80;99.90;;;;;;5015120;28;20206;-79
2023/03/02 05:26:17;;;;;;;4.28;0.77;;;25.80;99.90;;;;;;5016183;28;20669;-80
2023/03/02 05:28:50;;;;;;;2.22;0.70;;;25.80;99.90;;;;;;5017295;28;20198;-79
2023/03/02 05:31:24;;;;;;;1.90;0.70;;;25.90;99.90;;;;;;5016668;28;20195;-80
2023/03/02 05:33:55;;;;;;;3.92;0.90;;;25.90;99.90;;;;;;5016315;28;20195;-80
2023/03/02 05:36:26;;;;;;;1.42;0.68;;;25.80;99.90;;;;;;5016121;28;20187;-79
2023/03/02 05:38:57;;;;;;;3.92;0.90;;;25.70;99.90;;;;;;5016198;28;20191;-79
2023/03/02 05:41:28;;;;;;;3.60;0.90;;;25.70;99.90;;;;;;5015819;28;20210;-79
2023/03/02 05:44:02;;;;;;;2.25;0.60;;;25.70;99.90;;;;;;5002910;28;20187;-80
2023/03/02 05:46:33;;;;;;;3.97;0.70;;;25.60;99.90;;;;;;4996335;28;20192;-82
2023/03/02 05:49:04;;;;;;;2.03;0.60;;;25.50;99.90;;;;;;4994937;28;20188;-80
2023/03/02 05:51:37;;;;;;;2.85;0.70;;;25.40;99.90;;;;;;4996089;28;20203;-80
2023/03/02 05:54:08;;;;;;;1.65;0.90;;;25.30;99.90;;;;;;4999692;28;20226;-81
2023/03/02 05:56:39;;;;;;;2.33;0.70;;;25.30;99.90;;;;;;5019712;28;20639;-81
2023/03/02 05:59:12;;;;;;;2.65;0.85;;;25.30;99.90;;;;;;5014796;28;20234;-82
2023/03/02 06:01:43;;;;;;;1.40;0.80;;;25.30;99.90;;;;;;5015807;28;20230;-84
2023/03/02 06:04:14;;;;;;;1.50;0.60;;;25.20;99.90;;;;;;5012470;28;20188;-83
2023/03/02 06:06:45;;;;;;;2.60;0.70;;;25.10;99.90;;;;;;5015591;28;20195;-82
2023/03/02 06:09:16;;;;;;;3.53;0.82;;;25.10;99.90;;;;;;5015463;28;20188;-81
2023/03/02 06:11:47;;;;;;;2.85;0.70;;;25.00;99.90;;;;;;5015521;28;20195;-81
2023/03/02 06:14:20;;;;;;;2.78;0.90;;;24.90;99.90;;;;;;5015873;28;20191;-80
2023/03/02 06:16:51;;;;;;;3.75;1.00;;;24.80;99.90;;;;;;5014760;28;20647;-82
2023/03/02 06:19:22;;;;;;;2.40;0.90;;;24.90;99.90;;;;;;5015452;28;20195;-81
2023/03/02 06:21:53;;;;;;;1.98;0.68;;;24.90;99.90;;;;;;5015372;28;20694;-80
2023/03/02 06:24:24;;;;;;;3.45;0.93;;;24.90;99.90;;;;;;5015236;28;20646;-80
2023/03/02 06:26:57;;;;;;;2.97;0.73;;;24.80;99.90;;;;;;5010961;28;20556;-81
2023/03/02 06:29:30;;;;;;;1.75;0.60;;;24.80;99.90;;;;;;5017839;28;20187;-80
2023/03/02 06:32:01;;;;;;;3.00;0.75;;;24.80;99.90;;;;;;5015113;28;20635;-82
2023/03/02 06:34:32;;;;;;;4.53;0.75;;;24.80;99.90;;;;;;4995652;28;20532;-80
2023/03/02 06:37:03;;;;;;;1.25;0.55;;;24.70;99.90;;;;;;4995441;28;20200;-82
2023/03/02 06:39:34;;;;;;;2.90;0.82;;;24.70;99.90;;;;;;5010717;28;20195;-81
2023/03/02 06:42:05;;;;;;;2.25;0.70;;;24.80;99.90;;;;;;5014811;28;20238;-82
2023/03/02 06:44:38;;;;;;;1.77;0.77;;;24.80;99.90;;;;;;5002888;28;20644;-82
2023/03/02 06:47:09;;;;;;;2.20;0.77;;;24.80;99.90;;;;;;4995117;28;20644;-81
2023/03/02 06:49:41;;;;;;;3.13;0.80;;;24.70;99.90;;;;;;4999883;28;20640;-82
2023/03/02 06:52:12;;;;;;;4.00;1.00;;;24.70;99.90;;;;;;5014609;28;20213;-82
2023/03/02 06:54:43;;;;;;;4.68;1.30;;;24.60;99.90;;;;;;5007014;28;20317;-81
2023/03/02 06:57:14;;;;;;;2.67;0.95;;;24.60;99.90;;;;;;4995023;28;20192;-81
2023/03/02 06:59:47;;;;;;;2.03;0.82;;;24.50;99.90;;;;;;4995002;28;20239;-81
2023/03/02 07:02:18;;;;;;;2.63;0.88;;;24.50;99.90;;;;;;4994846;28;20219;-83
2023/03/02 07:04:49;;;;;;;3.35;0.80;;;24.40;99.90;;;;;;4995086;28;20202;-79
2023/03/02 07:07:20;;;;;;;2.45;0.80;;;24.40;99.90;;;;;;5001370;28;20195;-81
2023/03/02 07:09:51;;;;;;;2.90;0.88;;;24.30;99.90;;;;;;5012781;28;20188;-83
2023/03/02 07:12:22;;;;;;;3.35;0.90;;;24.40;99.90;;;;;;5012655;28;20198;-83
2023/03/02 07:14:55;;;;;;;4.10;1.10;;;24.30;99.90;;;;;;5001100;28;20652;-82
2023/03/02 07:17:27;;;;;;;4.63;1.33;;;24.30;99.90;;;;;;5005802;28;20276;-82
2023/03/02 07:19:58;;;;;;;3.75;0.98;;;24.30;99.90;;;;;;5005068;28;20191;-81
2023/03/02 07:22:29;;;;;;;5.00;1.52;;;24.20;99.90;;;;;;5011309;28;20217;-84
2023/03/02 07:25:00;;;;;;;3.05;1.13;;;24.20;99.90;;;;;;5014246;28;20195;-82
2023/03/02 07:27:31;;;;;;;2.88;0.95;;;24.10;99.90;;;;;;5005037;28;20184;-82
2023/03/02 07:30:04;;;;;;;6.55;1.02;;;24.10;99.90;;;;;;4994650;28;20207;-80
2023/03/02 07:32:35;;;;;;;5.22;1.02;;;24.10;99.90;;;;;;4994552;28;20192;-82
2023/03/02 07:35:06;;;;;;;4.35;1.20;;;24.10;99.90;;;;;;4997369;28;20195;-81
2023/03/02 07:37:37;;;;;;;7.25;1.30;;;24.10;99.90;;;;;;5004407;28;20195;-79
2023/03/02 07:40:10;;;;;;;1.70;0.90;;;24.10;99.90;;;;;;5008375;28;20191;-79
2023/03/02 07:42:41;;;;;;;3.35;0.90;;;24.00;99.90;;;;;;5009139;28;20227;-83
2023/03/02 07:45:15;;;;;;;3.50;1.17;;;24.00;99.90;;;;;;5010890;28;20206;-81
2023/03/02 07:47:46;;;;;;;3.33;0.90;;;23.90;99.90;;;;;;5007381;28;20205;-80
2023/03/02 07:50:17;;;;;;;2.78;1.10;;;23.80;99.90;;;;;;5007219;28;20195;-81
2023/03/02 07:52:48;;;;;;;3.35;1.10;;;23.80;99.90;;;;;;5009368;28;20206;-80
2023/03/02 07:55:19;;;;;;;4.55;1.20;;;23.80;99.90;;;;;;5004047;28;20206;-80
2023/03/02 07:57:54;;;;;;;3.10;1.05;;;23.80;99.90;;;;;;5008984;28;20237;-80
2023/03/02 08:00:27;;;;;;;1.75;1.02;;;23.70;99.90;;;;;;5004506;28;20643;-81
2023/03/02 08:02:58;;;;;;;3.50;1.00;;;23.70;99.90;;;;;;4994079;28;20226;-81
2023/03/02 08:05:29;;;;;;;3.10;0.93;;;23.70;99.90;;;;;;4996136;28;20187;-80
2023/03/02 08:08:00;;;;;;;2.95;0.80;;;23.60;99.90;;;;;;5005507;28;20206;-80
2023/03/02 08:10:31;;;;;;;2.08;0.88;;;23.60;99.90;;;;;;5033301;28;20201;-82
2023/03/02 08:13:03;;;;;;;4.13;0.80;;;23.50;99.90;;;;;;5018129;28;20659;-82
2023/03/02 08:15:36;;;;;;;3.40;0.93;;;23.50;99.90;;;;;;5009523;28;20249;-82
2023/03/02 08:18:07;;;;;;;3.58;1.08;;;23.50;99.90;;;;;;5005410;28;20215;-80
2023/03/02 08:20:38;;;;;;;2.42;1.50;;;23.40;99.90;;;;;;4998103;28;20199;-80
2023/03/02 08:23:09;;;;;;;3.30;1.20;;;23.40;99.90;;;;;;5004399;28;20215;-81
2023/03/02 08:25:43;;;;;;;4.88;1.17;;;23.30;99.90;;;;;;5008771;28;20605;-81
2023/03/02 08:28:15;;;;;;;3.22;1.10;;;23.30;99.90;;;;;;5006312;28;20194;-80
2023/03/02 08:30:55;;;;;;;2.88;1.50;;;23.20;99.90;;;;;;5012442;28;20213;-82
2023/03/02 08:33:27;;;;;;;3.10;1.20;;;23.20;99.90;;;;;;5010441;28;20206;-82
2023/03/02 08:36:00;;;;;;;3.08;1.17;;;23.20;99.90;;;;;;5000949;28;20600;-82
2023/03/02 08:38:31;;;;;;;4.38;1.40;;;23.20;99.90;;;;;;5012635;28;20567;-83
2023/03/02 08:41:06;;;;;;;3.20;1.10;;;23.10;99.90;;;;;;5011034;28;20550;-82
2023/03/02 08:43:37;;;;;;;1.92;0.93;;;23.10;99.90;;;;;;5009589;28;20222;-80
2023/03/02 08:46:12;;;;;;;5.03;1.10;;;23.10;99.90;;;;;;5010293;28;20198;-79
2023/03/02 08:48:43;;;;;;;5.45;0.90;;;23.00;99.90;;;;;;5007878;28;20202;-81
2023/03/02 08:51:16;;;;;;;2.15;1.05;;;23.10;99.90;;;;;;5011059;28;20198;-80
2023/03/02 08:53:49;;;;;;;2.03;0.93;;;23.00;99.90;;;;;;5010574;28;20207;-81
2023/03/02 08:56:21;;;;;;;3.88;1.40;;;23.00;99.90;;;;;;5009623;28;20206;-81
2023/03/02 08:58:53;;;;;;;3.67;1.30;;;23.00;99.90;;;;;;5010545;28;20230;-82
2023/03/02 09:01:29;;;;;;;3.80;1.27;;;22.90;99.90;;;;;;5008339;28;20670;-82
2023/03/02 09:04:00;;;;;;;4.70;1.23;;;22.90;99.90;;;;;;5000295;28;20218;-81
2023/03/02 09:06:33;;;;;;;3.00;1.15;;;22.90;99.90;;;;;;5011064;28;20690;-78
2023/03/02 09:09:04;;;;;;;4.45;1.45;;;22.90;99.90;;;;;;5011246;28;20206;-78
2023/03/02 09:11:35;;;;;;;2.63;1.15;;;22.90;99.90;;;;;;5010574;28;20214;-77
2023/03/02 09:14:07;;;;;;;2.28;1.10;;;22.90;99.90;;;;;;5011653;28;20218;-78
2023/03/02 09:16:40;;;;;;;2.85;1.38;;;22.80;99.90;;;;;;5009088;28;20670;-78
2023/03/02 09:19:11;;;;;;;4.00;1.30;;;22.80;99.90;;;;;;5003412;28;20200;-80
2023/03/02 09:21:42;;;;;;;5.45;1.30;;;22.80;99.90;;;;;;5005120;28;20207;-79
2023/03/02 09:24:14;;;;;;;5.35;1.15;;;22.80;99.90;;;;;;5006126;28;20223;-78
2023/03/02 09:26:45;;;;;;;2.28;1.10;;;22.80;99.90;;;;;;5011091;28;20214;-78
2023/03/02 09:29:16;;;;;;;1.92;0.93;;;22.80;99.90;;;;;;5013241;28;20221;-77
2023/03/02 09:31:49;;;;;;;5.45;1.10;;;22.80;99.90;;;;;;5012734;28;20199;-77
2023/03/02 09:34:21;;;;;;;4.60;1.13;;;22.70;99.90;;;;;;5009627;28;20190;-82
2023/03/02 09:36:53;;;;;;;6.05;1.75;;;22.80;99.90;;;;;;5015767;28;20662;-78
2023/03/02 09:39:24;;;;;;;3.85;1.23;;;22.70;99.90;;;;;;5013374;28;20663;-78
2023/03/02 09:42:34;;;;;;;4.43;1.33;;;22.70;99.90;;;;;;5014057;28;20595;-77
2023/03/02 09:45:36;;;;;;;4.20;1.17;;;22.70;99.90;;;;;;5007321;28;20222;-79
2023/03/02 09:48:21;;;;;;;3.60;1.50;;;22.70;99.90;;;;;;5010154;28;20211;-78
2023/03/02 09:51:03;;;;;;;5.10;1.35;;;22.70;99.90;;;;;;5013021;28;20194;-79
2023/03/02 09:53:48;;;;;;;2.78;1.10;;;22.70;99.90;;;;;;5012683;28;20207;-78
2023/03/02 09:56:21;;;;;;;3.72;1.00;;;22.60;99.90;;;;;;5013865;28;20191;-78
2023/03/02 09:58:59;;;;;;;4.88;1.15;;;22.60;99.90;;;;;;5013945;28;20610;-78
2023/03/02 10:01:42;;;;;;;4.07;1.15;;;22.60;99.90;;;;;;5010497;28;20195;-78
2023/03/02 10:04:23;;;;;;;4.70;1.27;;;22.60;99.90;;;;;;5010431;28;20687;-78
2023/03/02 10:06:58;;;;;;;3.08;1.00;;;22.50;99.90;;;;;;5015511;28;20659;-78
2023/03/02 10:09:29;;;;;;;2.67;1.13;;;22.50;99.90;;;;;;5014736;28;20245;-78
2023/03/02 10:12:23;;;;;;;4.50;1.42;;;22.60;99.90;;;;;;5010725;28;20221;-78
2023/03/02 10:14:58;;;;;;;3.80;1.20;;;22.50;99.90;;;;;;5011308;28;20467;-78
2023/03/02 10:17:50;;;;;;;6.88;1.38;;;22.50;99.90;;;;;;5010722;28;20202;-78
2023/03/02 10:20:34;;;;;;;3.67;1.05;;;22.50;99.90;;;;;;5009156;28;20195;-79
2023/03/02 10:23:27;;;;;;;4.28;1.10;;;22.50;99.90;;;;;;5010252;28;20273;-78
2023/03/02 10:26:07;;;;;;;3.53;1.05;;;22.50;99.90;;;;;;5013071;28;20563;-78
2023/03/02 10:28:41;;;;;;;3.88;1.05;;;22.50;99.90;;;;;;5005120;28;20199;-77
2023/03/02 10:31:18;;;;;;;5.40;1.20;;;22.50;99.90;;;;;;5011718;28;20206;-79
2023/03/02 10:33:51;;;;;;;8.07;1.52;;;22.50;99.90;;;;;;5007711;28;20202;-78
2023/03/02 10:36:27;;;;;;;2.47;0.90;;;22.50;99.90;;;;;;5013837;28;20199;-77
2023/03/02 10:38:59;;;;;;;4.60;1.30;;;22.40;99.90;;;;;;5015184;28;20187;-78
2023/03/02 10:41:34;;;;;;;6.07;1.38;;;22.50;99.90;;;;;;5013575;28;20219;-79
2023/03/02 10:44:09;;;;;;;6.13;1.20;;;22.40;99.90;;;;;;5012345;28;20587;-78
2023/03/02 10:46:45;;;;;;;2.70;1.00;;;22.40;99.90;;;;;;5014979;28;20195;-78
2023/03/02 10:49:31;;;;;;;4.20;1.40;;;22.40;99.90;;;;;;5010330;28;20190;-79
2023/03/02 10:52:06;;;;;;;3.95;1.30;;;22.40;99.90;;;;;;5018709;28;20188;-79
2023/03/02 10:54:37;;;;;;;1.88;1.08;;;22.40;99.90;;;;;;5014923;28;20217;-79
2023/03/02 10:57:31;;;;;;;3.20;0.93;;;22.40;99.90;;;;;;5014436;28;20191;-79
2023/03/02 11:00:04;;;;;;;3.15;1.10;;;22.40;99.90;;;;;;4994894;28;20195;-78
2023/03/02 11:02:38;;;;;;;3.70;1.10;;;22.30;99.90;;;;;;5002310;28;20572;-78
2023/03/02 11:05:30;;;;;;;3.65;1.13;;;22.30;99.90;;;;;;5013395;28;20222;-78
2023/03/02 11:08:04;;;;;;;4.40;1.00;;;22.30;99.90;;;;;;5011289;28;20696;-79
2023/03/02 11:10:36;;;;;;;4.22;0.88;;;22.30;99.90;;;;;;5009629;28;20206;-79
2023/03/02 11:13:19;;;;;;;2.97;1.20;;;22.30;99.90;;;;;;4994706;28;20578;-78
2023/03/02 11:15:51;;;;;;;3.53;0.93;;;22.30;99.90;;;;;;4999093;28;20199;-78
2023/03/02 11:18:28;;;;;;;2.28;0.80;;;22.30;99.90;;;;;;4995891;28;20223;-78
2023/03/02 11:21:04;;;;;;;5.07;1.20;;;22.30;99.90;;;;;;5014380;28;20190;-78
2023/03/02 11:23:51;;;;;;;2.47;0.88;;;22.30;99.90;;;;;;5014306;28;20270;-78
2023/03/02 11:26:26;;;;;;;6.10;1.30;;;22.30;99.90;;;;;;5013097;28;20197;-80
2023/03/02 11:29:03;;;;;;;4.13;1.02;;;22.30;99.90;;;;;;5006477;28;20666;-79
2023/03/02 11:31:43;;;;;;;3.15;0.98;;;22.30;99.90;;;;;;4998372;28;20202;-82
2023/03/02 11:34:32;;;;;;;4.47;0.93;;;22.30;99.90;;;;;;5014218;28;20202;-81
2023/03/02 11:37:14;;;;;;;1.92;1.13;;;22.20;99.90;;;;;;5014135;28;20195;-81
2023/03/02 11:40:13;;;;;;;1.83;0.80;;;22.20;99.90;;;;;;5013396;28;20195;-81
2023/03/02 11:42:46;;;;;;;1.70;0.85;;;22.10;99.90;;;;;;5011843;28;20324;-81
2023/03/02 11:45:24;;;;;;;1.98;0.93;;;22.10;99.90;;;;;;5011063;28;20199;-82
2023/03/02 11:47:58;;;;;;;4.30;1.10;;;22.10;99.90;;;;;;5013028;28;20732;-82
2023/03/02 11:50:29;;;;;;;4.63;0.80;;;22.10;99.90;;;;;;4995893;28;20203;-81
2023/03/02 11:53:05;;;;;;;5.10;1.10;;;22.00;99.90;;;;;;4997245;28;20204;-81
2023/03/02 11:55:44;;;;;;;4.82;1.50;;;22.00;99.90;;;;;;5010176;28;20197;-79
2023/03/02 11:58:19;;;;;;;3.95;1.20;;;22.00;99.90;;;;;;5010291;28;20792;-83
2023/03/02 12:00:51;;;;;;;2.28;1.10;;;22.00;99.90;;;;;;5004306;28;20194;-82
2023/03/02 12:03:38;;;;;;;3.42;1.17;;;22.00;99.90;;;;;;5008401;28;20222;-78
2023/03/02 12:06:26;;;;;;;3.92;1.10;;;21.90;99.90;;;;;;5003061;28;20195;-79
2023/03/02 12:09:10;;;;;;;2.33;1.05;;;21.90;99.90;;;;;;5001343;28;20199;-78
2023/03/02 12:11:46;;;;;;;4.47;1.08;;;21.90;99.90;;;;;;5003040;28;20198;-79
2023/03/02 12:14:38;;;;;;;4.53;1.33;;;21.90;99.90;;;;;;5013638;28;20631;-79
2023/03/02 12:17:23;;;;;;;2.50;0.90;;;21.80;99.90;;;;;;5007272;28;20187;-79
2023/03/02 12:19:56;;;;;;;3.10;0.90;;;21.80;99.90;;;;;;5010358;28;20245;-78
2023/03/02 12:22:31;;;;;;;2.78;0.80;;;21.80;99.90;;;;;;5013332;28;20211;-78
2023/03/02 12:25:09;;;;;;;3.47;1.27;;;21.80;99.90;;;;;;5013570;28;20241;-79
2023/03/02 12:27:43;;;;;;;2.80;1.05;;;21.70;99.90;;;;;;5012573;28;20195;-79
2023/03/02 12:30:29;;;;;;;5.25;1.10;;;21.70;99.90;;;;;;5013633;28;20191;-80
2023/03/02 12:33:07;;;;;;;4.22;1.00;;;21.70;99.90;;;;;;5012703;28;20206;-82
2023/03/02 12:35:38;;;;;;;3.40;1.05;;;21.70;99.90;;;;;;5012773;28;20646;-81
2023/03/02 12:38:19;;;;;;;2.42;0.90;;;21.70;99.90;;;;;;4999635;28;20199;-81
2023/03/02 12:41:08;;;;;;;2.75;0.98;;;21.70;99.90;;;;;;5007736;28;20222;-78
2023/03/02 12:43:47;;;;;;;1.90;1.10;;;21.60;99.90;;;;;;5006136;28;20686;-81
2023/03/02 12:46:36;;;;;;;3.15;1.10;;;21.60;99.90;;;;;;5004121;28;20199;-81
2023/03/02 12:49:27;;;;;;;3.40;1.10;;;21.60;99.90;;;;;;5011957;28;20206;-82
2023/03/02 12:51:59;;;;;;;1.65;1.00;;;21.60;99.90;;;;;;5011576;28;20203;-81
2023/03/02 12:54:31;;;;;;;3.03;1.23;;;21.60;99.90;;;;;;5010656;28;20207;-82
2023/03/02 12:57:08;;;;;;;3.03;1.50;;;21.60;99.90;;;;;;5006391;28;20549;-81
2023/03/02 12:59:41;;;;;;;2.15;1.17;;;21.60;99.90;;;;;;5013043;28;20226;-82
2023/03/02 13:02:23;;;;;;;1.95;1.00;;;21.50;99.90;;;;;;5009716;28;20199;-82
2023/03/02 13:04:59;;;;;;;2.67;1.17;;;21.50;99.90;;;;;;5013872;28;20219;-82
2023/03/02 13:07:35;;;;;;;3.45;1.15;;;21.50;99.90;;;;;;5015082;28;20209;-82
2023/03/02 13:10:10;;;;;;;4.60;1.65;;;21.50;99.90;;;;;;5008017;28;20203;-82
2023/03/02 13:12:47;;;;;;;2.50;1.30;;;21.50;99.90;;;;;;5013838;28;20194;-82
2023/03/02 13:15:21;;;;;;;5.72;1.40;;;21.50;99.90;;;;;;5016060;28;20199;-82
2023/03/02 13:17:57;;;;;;;2.22;0.95;;;21.50;99.90;;;;;;5016728;28;20191;-82
2023/03/02 13:20:30;;;;;;;2.63;1.08;;;21.50;99.90;;;;;;5015452;28;20203;-81
2023/03/02 13:23:01;;;;;;;3.55;1.30;;;21.50;99.90;;;;;;5014643;28;20567;-82